Date,TemperatureHighF,TemperatureAvgF,TemperatureLowF,DewpointHighF,DewpointAvgF,DewpointLowF,HumidityHigh,HumidityAvg,HumidityLow,PressureMaxIn,PressureMinIn,WindSpeedMaxMPH,WindSpeedAvgMPH,GustSpeedMaxMPH,PrecipitationSumIn
2013-12-1,46.7,33.7,22.0,35.2,28.6,19.8,94,82,57,30.38,30.02,4,0,8,0.00
2013-12-2,46.6,40.2,37.4,39.3,36.3,34.3,93,86,71,30.02,29.88,2,0,7,0.00
2013-12-3,54.7,41.6,32.9,38.8,35.5,30.7,92,80,54,30.00,29.88,3,0,8,0.00
2013-12-4,50.6,43.5,33.3,47.0,40.4,30.9,94,89,82,30.09,30.00,3,0,6,0.00
2013-12-5,61.1,54.2,47.4,57.3,52.0,45.5,94,92,85,30.09,29.92,7,2,15,0.00
2013-12-6,64.6,49.7,37.2,62.2,47.9,35.4,94,93,89,30.18,29.88,7,2,16,0.68
2013-12-7,42.8,37.5,32.2,35.9,31.2,22.8,94,78,65,30.54,30.11,6,3,17,0.21
2013-12-8,32.2,30.1,28.0,30.6,25.0,20.4,94,82,67,30.60,30.29,7,2,14,0.00
2013-12-9,35.7,33.3,31.6,34.1,31.8,30.1,94,94,93,30.29,30.03,4,0,7,0.22
2013-12-10,35.4,32.0,28.3,33.8,29.2,20.6,94,90,68,30.22,29.99,4,1,15,0.01
2013-12-11,40.3,28.6,21.0,24.5,21.0,17.7,94,74,51,30.41,30.22,5,1,12,0.08
2013-12-12,31.8,25.3,19.0,23.5,15.5,11.0,91,67,45,30.43,30.24,6,2,19,0.05
2013-12-13,42.3,30.3,20.3,24.3,19.5,13.3,81,66,42,30.32,30.22,8,1,16,0.13
2013-12-14,37.9,34.6,28.8,36.3,30.7,23.7,94,86,73,30.34,29.68,8,3,16,0.82
2013-12-15,46.5,37.1,31.4,38.5,30.8,23.6,94,79,62,29.94,29.61,12,3,30,0.00
2013-12-16,36.6,32.8,29.3,26.8,24.1,19.1,83,70,62,30.21,29.94,8,2,21,0.00
2013-12-17,35.3,33.1,30.7,29.8,27.1,24.8,85,79,74,30.18,29.95,5,2,11,0.00
2013-12-18,39.8,30.9,23.8,26.8,23.5,20.3,92,75,51,30.23,29.98,9,2,24,0.00
2013-12-19,57.7,38.1,22.6,37.8,28.6,20.3,93,72,41,30.22,30.06,5,1,12,0.00
2013-12-20,59.0,51.6,39.3,50.9,38.1,29.6,77,60,43,30.10,29.99,5,2,15,0.00
2013-12-21,71.7,61.2,54.3,57.8,52.5,45.9,89,73,61,30.02,29.89,9,4,21,0.00
2013-12-22,70.8,61.9,57.7,65.4,59.3,54.4,94,91,81,30.01,29.82,11,4,25,0.34
2013-12-23,62.1,54.0,39.6,60.1,50.4,30.3,94,88,68,30.23,29.92,7,3,19,0.71
2013-12-24,40.6,34.6,24.1,30.9,22.7,10.6,74,62,48,30.46,30.19,10,5,25,0.00
2013-12-25,31.9,23.5,18.4,17.5,14.4,11.7,89,69,51,30.58,30.40,6,1,15,0.00
2013-12-26,44.2,29.3,18.6,28.2,22.8,15.9,91,78,52,30.40,30.22,6,1,12,0.00
2013-12-27,49.5,32.9,21.8,27.3,23.1,18.5,89,70,37,30.43,30.31,5,1,15,0.00
2013-12-28,59.3,40.1,27.3,34.6,28.1,22.2,82,64,35,30.33,30.11,6,1,11,0.00
2013-12-29,46.3,42.9,37.1,44.7,39.2,31.0,94,87,57,30.11,29.51,6,2,16,1.14
2013-12-30,45.4,37.8,32.1,39.9,31.3,21.2,94,78,62,30.20,29.81,8,2,19,0.00
2013-12-31,43.9,33.3,25.1,31.7,22.6,18.1,80,65,48,30.34,30.09,10,2,28,0.00